sensor_id;sensor_type;location;lat;lon;timestamp;P1;durP1;ratioP1;P2;durP2;ratioP2
11078;SDS011;5592;49.234;7.268;2023-03-01T00:01:36;10.07;;;6.40;;
11078;SDS011;5592;49.234;7.268;2023-03-01T00:04:02;9.47;;;6.83;;
11078;SDS011;5592;49.234;7.268;2023-03-01T00:06:28;10.67;;;6.40;;
11078;SDS011;5592;49.234;7.268;2023-03-01T00:08:53;9.77;;;5.73;;
11078;SDS011;5592;49.234;7.268;2023-03-01T00:11:20;8.87;;;5.57;;
11078;SDS011;5592;49.234;7.268;2023-03-01T00:13:52;10.13;;;5.80;;
11078;SDS011;5592;49.234;7.268;2023-03-01T00:16:24;10.53;;;6.33;;
11078;SDS011;5592;49.234;7.268;2023-03-01T00:18:53;9.33;;;5.97;;
11078;SDS011;5592;49.234;7.268;2023-03-01T00:21:20;10.90;;;5.97;;
11078;SDS011;5592;49.234;7.268;2023-03-01T00:23:47;10.50;;;6.50;;
11078;SDS011;5592;49.234;7.268;2023-03-01T00:26:14;11.40;;;6.87;;
11078;SDS011;5592;49.234;7.268;2023-03-01T00:28:41;13.43;;;7.27;;
11078;SDS011;5592;49.234;7.268;2023-03-01T00:31:09;11.30;;;6.83;;
11078;SDS011;5592;49.234;7.268;2023-03-01T00:33:44;11.73;;;6.60;;
11078;SDS011;5592;49.234;7.268;2023-03-01T00:36:10;11.00;;;6.53;;
11078;SDS011;5592;49.234;7.268;2023-03-01T00:38:38;9.53;;;6.60;;
11078;SDS011;5592;49.234;7.268;2023-03-01T00:41:05;10.60;;;6.20;;
11078;SDS011;5592;49.234;7.268;2023-03-01T00:43:32;11.87;;;6.80;;
11078;SDS011;5592;49.234;7.268;2023-03-01T00:46:01;7.60;;;6.13;;
11078;SDS011;5592;49.234;7.268;2023-03-01T00:48:28;11.10;;;6.90;;
11078;SDS011;5592;49.234;7.268;2023-03-01T00:50:54;11.50;;;6.40;;
11078;SDS011;5592;49.234;7.268;2023-03-01T00:53:20;11.30;;;6.53;;
11078;SDS011;5592;49.234;7.268;2023-03-01T00:55:45;11.30;;;7.13;;
11078;SDS011;5592;49.234;7.268;2023-03-01T00:58:11;9.60;;;6.70;;
11078;SDS011;5592;49.234;7.268;2023-03-01T01:00:36;9.97;;;6.07;;
11078;SDS011;5592;49.234;7.268;2023-03-01T01:03:02;18.50;;;7.50;;
11078;SDS011;5592;49.234;7.268;2023-03-01T01:05:27;12.53;;;6.87;;
11078;SDS011;5592;49.234;7.268;2023-03-01T01:07:53;12.70;;;7.00;;
11078;SDS011;5592;49.234;7.268;2023-03-01T01:10:19;8.50;;;6.20;;
11078;SDS011;5592;49.234;7.268;2023-03-01T01:12:45;9.90;;;5.87;;
11078;SDS011;5592;49.234;7.268;2023-03-01T01:15:11;12.63;;;7.30;;
11078;SDS011;5592;49.234;7.268;2023-03-01T01:17:39;12.77;;;7.40;;
11078;SDS011;5592;49.234;7.268;2023-03-01T01:20:05;10.33;;;6.90;;
11078;SDS011;5592;49.234;7.268;2023-03-01T01:22:31;14.77;;;7.53;;
11078;SDS011;5592;49.234;7.268;2023-03-01T01:24:57;12.83;;;7.00;;
11078;SDS011;5592;49.234;7.268;2023-03-01T01:27:22;10.17;;;7.30;;
11078;SDS011;5592;49.234;7.268;2023-03-01T01:29:48;12.13;;;6.90;;
11078;SDS011;5592;49.234;7.268;2023-03-01T01:32:13;12.97;;;7.30;;
11078;SDS011;5592;49.234;7.268;2023-03-01T01:34:39;15.87;;;7.43;;
11078;SDS011;5592;49.234;7.268;2023-03-01T01:37:05;18.93;;;7.83;;
11078;SDS011;5592;49.234;7.268;2023-03-01T01:39:32;10.83;;;6.07;;
11078;SDS011;5592;49.234;7.268;2023-03-01T01:41:59;11.40;;;6.47;;
11078;SDS011;5592;49.234;7.268;2023-03-01T01:44:26;12.57;;;6.77;;
11078;SDS011;5592;49.234;7.268;2023-03-01T01:46:54;11.90;;;7.03;;
11078;SDS011;5592;49.234;7.268;2023-03-01T01:49:42;12.47;;;7.50;;
11078;SDS011;5592;49.234;7.268;2023-03-01T01:55:09;11.17;;;6.67;;
11078;SDS011;5592;49.234;7.268;2023-03-01T01:57:44;12.43;;;6.93;;
11078;SDS011;5592;49.234;7.268;2023-03-01T02:00:13;10.50;;;6.63;;
11078;SDS011;5592;49.234;7.268;2023-03-01T02:02:43;21.00;;;7.93;;
11078;SDS011;5592;49.234;7.268;2023-03-01T02:05:17;13.80;;;7.30;;
11078;SDS011;5592;49.234;7.268;2023-03-01T02:08:10;15.63;;;7.93;;
11078;SDS011;5592;49.234;7.268;2023-03-01T02:10:38;12.90;;;7.47;;
11078;SDS011;5592;49.234;7.268;2023-03-01T02:13:05;12.07;;;7.63;;
11078;SDS011;5592;49.234;7.268;2023-03-01T02:15:32;12.00;;;8.00;;
11078;SDS011;5592;49.234;7.268;2023-03-01T02:18:00;11.43;;;7.97;;
11078;SDS011;5592;49.234;7.268;2023-03-01T02:20:34;11.37;;;6.77;;
11078;SDS011;5592;49.234;7.268;2023-03-01T02:23:20;14.27;;;7.97;;
11078;SDS011;5592;49.234;7.268;2023-03-01T02:28:31;13.13;;;7.93;;
11078;SDS011;5592;49.234;7.268;2023-03-01T02:31:03;11.13;;;8.07;;
11078;SDS011;5592;49.234;7.268;2023-03-01T02:33:49;15.07;;;8.10;;
11078;SDS011;5592;49.234;7.268;2023-03-01T02:36:27;14.37;;;6.90;;
11078;SDS011;5592;49.234;7.268;2023-03-01T02:38:58;16.20;;;8.10;;
11078;SDS011;5592;49.234;7.268;2023-03-01T02:41:26;13.73;;;7.13;;
11078;SDS011;5592;49.234;7.268;2023-03-01T02:43:55;13.97;;;7.73;;
11078;SDS011;5592;49.234;7.268;2023-03-01T02:46:22;12.90;;;9.47;;
11078;SDS011;5592;49.234;7.268;2023-03-01T02:48:53;13.47;;;8.53;;
11078;SDS011;5592;49.234;7.268;2023-03-01T02:51:31;12.33;;;8.27;;
11078;SDS011;5592;49.234;7.268;2023-03-01T02:54:26;13.87;;;8.33;;
11078;SDS011;5592;49.234;7.268;2023-03-01T02:57:02;13.17;;;8.00;;
11078;SDS011;5592;49.234;7.268;2023-03-01T02:59:29;12.77;;;7.77;;
11078;SDS011;5592;49.234;7.268;2023-03-01T03:01:59;13.63;;;7.73;;
11078;SDS011;5592;49.234;7.268;2023-03-01T03:04:26;23.97;;;8.50;;
11078;SDS011;5592;49.234;7.268;2023-03-01T03:06:51;13.70;;;8.37;;
11078;SDS011;5592;49.234;7.268;2023-03-01T03:09:19;15.20;;;8.77;;
11078;SDS011;5592;49.234;7.268;2023-03-01T03:11:45;14.83;;;8.77;;
11078;SDS011;5592;49.234;7.268;2023-03-01T03:14:12;12.07;;;7.87;;
11078;SDS011;5592;49.234;7.268;2023-03-01T03:16:43;22.67;;;8.63;;
11078;SDS011;5592;49.234;7.268;2023-03-01T03:19:11;15.20;;;9.60;;
11078;SDS011;5592;49.234;7.268;2023-03-01T03:21:37;13.67;;;9.27;;
11078;SDS011;5592;49.234;7.268;2023-03-01T03:24:03;12.67;;;8.80;;
11078;SDS011;5592;49.234;7.268;2023-03-01T03:26:29;15.60;;;9.40;;
11078;SDS011;5592;49.234;7.268;2023-03-01T03:28:54;16.80;;;9.47;;
11078;SDS011;5592;49.234;7.268;2023-03-01T03:31:20;14.00;;;9.40;;
11078;SDS011;5592;49.234;7.268;2023-03-01T03:33:46;12.97;;;8.60;;
11078;SDS011;5592;49.234;7.268;2023-03-01T03:36:19;14.40;;;9.00;;
11078;SDS011;5592;49.234;7.268;2023-03-01T03:38:47;17.83;;;8.70;;
11078;SDS011;5592;49.234;7.268;2023-03-01T03:41:14;18.17;;;9.17;;
11078;SDS011;5592;49.234;7.268;2023-03-01T03:43:40;14.17;;;8.70;;
11078;SDS011;5592;49.234;7.268;2023-03-01T03:46:08;17.80;;;9.40;;
11078;SDS011;5592;49.234;7.268;2023-03-01T03:48:36;18.77;;;9.57;;
11078;SDS011;5592;49.234;7.268;2023-03-01T03:51:12;16.60;;;8.93;;
11078;SDS011;5592;49.234;7.268;2023-03-01T03:53:39;19.23;;;9.53;;
11078;SDS011;5592;49.234;7.268;2023-03-01T03:56:06;14.80;;;9.00;;
11078;SDS011;5592;49.234;7.268;2023-03-01T03:58:32;14.13;;;9.23;;
11078;SDS011;5592;49.234;7.268;2023-03-01T04:00:58;17.90;;;9.73;;
11078;SDS011;5592;49.234;7.268;2023-03-01T04:03:26;14.80;;;9.20;;
11078;SDS011;5592;49.234;7.268;2023-03-01T04:05:52;19.33;;;10.20;;
11078;SDS011;5592;49.234;7.268;2023-03-01T04:08:21;12.40;;;8.90;;
11078;SDS011;5592;49.234;7.268;2023-03-01T04:10:48;15.40;;;9.23;;
11078;SDS011;5592;49.234;7.268;2023-03-01T04:13:16;16.23;;;9.40;;
11078;SDS011;5592;49.234;7.268;2023-03-01T04:15:45;17.13;;;9.30;;
11078;SDS011;5592;49.234;7.268;2023-03-01T04:18:12;16.40;;;9.57;;
11078;SDS011;5592;49.234;7.268;2023-03-01T04:20:39;17.10;;;9.23;;
11078;SDS011;5592;49.234;7.268;2023-03-01T04:23:16;16.13;;;9.63;;
11078;SDS011;5592;49.234;7.268;2023-03-01T04:28:24;19.10;;;9.90;;
11078;SDS011;5592;49.234;7.268;2023-03-01T04:31:05;20.90;;;10.80;;
11078;SDS011;5592;49.234;7.268;2023-03-01T04:33:48;20.00;;;10.27;;
11078;SDS011;5592;49.234;7.268;2023-03-01T04:36:19;17.53;;;8.60;;
11078;SDS011;5592;49.234;7.268;2023-03-01T04:38:47;19.57;;;10.50;;
11078;SDS011;5592;49.234;7.268;2023-03-01T04:41:13;21.07;;;10.13;;
11078;SDS011;5592;49.234;7.268;2023-03-01T04:43:41;19.57;;;10.47;;
11078;SDS011;5592;49.234;7.268;2023-03-01T04:46:08;19.07;;;10.13;;
11078;SDS011;5592;49.234;7.268;2023-03-01T04:48:36;19.10;;;10.27;;
11078;SDS011;5592;49.234;7.268;2023-03-01T04:51:03;19.20;;;10.53;;
11078;SDS011;5592;49.234;7.268;2023-03-01T04:53:29;19.50;;;10.67;;
11078;SDS011;5592;49.234;7.268;2023-03-01T04:55:58;20.87;;;10.40;;
11078;SDS011;5592;49.234;7.268;2023-03-01T04:58:24;21.10;;;10.77;;
11078;SDS011;5592;49.234;7.268;2023-03-01T05:00:51;19.17;;;10.80;;
11078;SDS011;5592;49.234;7.268;2023-03-01T05:03:17;19.10;;;10.80;;
11078;SDS011;5592;49.234;7.268;2023-03-01T05:05:47;20.20;;;11.43;;
11078;SDS011;5592;49.234;7.268;2023-03-01T05:08:14;16.03;;;10.67;;
11078;SDS011;5592;49.234;7.268;2023-03-01T05:10:48;22.27;;;12.20;;
11078;SDS011;5592;49.234;7.268;2023-03-01T05:13:18;21.83;;;11.83;;
11078;SDS011;5592;49.234;7.268;2023-03-01T05:15:57;21.20;;;11.37;;
11078;SDS011;5592;49.234;7.268;2023-03-01T05:18:25;19.57;;;10.90;;
11078;SDS011;5592;49.234;7.268;2023-03-01T05:20:55;17.27;;;10.83;;
11078;SDS011;5592;49.234;7.268;2023-03-01T05:23:26;25.63;;;11.40;;
11078;SDS011;5592;49.234;7.268;2023-03-01T05:25:51;21.43;;;10.53;;
11078;SDS011;5592;49.234;7.268;2023-03-01T05:28:18;24.30;;;12.17;;
11078;SDS011;5592;49.234;7.268;2023-03-01T05:30:45;24.00;;;12.37;;
11078;SDS011;5592;49.234;7.268;2023-03-01T05:33:11;19.30;;;10.70;;
11078;SDS011;5592;49.234;7.268;2023-03-01T05:35:40;22.80;;;11.90;;
11078;SDS011;5592;49.234;7.268;2023-03-01T05:38:07;18.77;;;12.30;;
11078;SDS011;5592;49.234;7.268;2023-03-01T05:40:33;17.93;;;10.33;;
11078;SDS011;5592;49.234;7.268;2023-03-01T05:43:00;19.63;;;10.97;;
11078;SDS011;5592;49.234;7.268;2023-03-01T05:45:26;19.90;;;11.53;;
11078;SDS011;5592;49.234;7.268;2023-03-01T05:47:52;21.13;;;11.70;;
11078;SDS011;5592;49.234;7.268;2023-03-01T05:50:21;17.23;;;10.60;;
11078;SDS011;5592;49.234;7.268;2023-03-01T05:52:52;18.73;;;10.40;;
11078;SDS011;5592;49.234;7.268;2023-03-01T05:55:23;20.57;;;10.80;;
11078;SDS011;5592;49.234;7.268;2023-03-01T05:57:48;20.83;;;11.17;;
11078;SDS011;5592;49.234;7.268;2023-03-01T06:00:18;25.27;;;13.30;;
11078;SDS011;5592;49.234;7.268;2023-03-01T06:02:47;27.07;;;10.77;;
11078;SDS011;5592;49.234;7.268;2023-03-01T06:05:13;18.00;;;10.77;;
11078;SDS011;5592;49.234;7.268;2023-03-01T06:07:39;17.37;;;10.10;;
11078;SDS011;5592;49.234;7.268;2023-03-01T06:10:05;20.67;;;11.63;;
11078;SDS011;5592;49.234;7.268;2023-03-01T06:12:33;19.80;;;11.50;;
11078;SDS011;5592;49.234;7.268;2023-03-01T06:15:00;22.23;;;12.90;;
11078;SDS011;5592;49.234;7.268;2023-03-01T06:17:29;24.00;;;12.10;;
11078;SDS011;5592;49.234;7.268;2023-03-01T06:19:56;22.83;;;11.70;;
11078;SDS011;5592;49.234;7.268;2023-03-01T06:22:22;24.20;;;12.03;;
11078;SDS011;5592;49.234;7.268;2023-03-01T06:24:47;21.40;;;12.47;;
11078;SDS011;5592;49.234;7.268;2023-03-01T06:27:13;24.17;;;12.83;;
11078;SDS011;5592;49.234;7.268;2023-03-01T06:29:39;34.10;;;12.10;;
11078;SDS011;5592;49.234;7.268;2023-03-01T06:32:08;25.73;;;12.37;;
11078;SDS011;5592;49.234;7.268;2023-03-01T06:34:34;17.33;;;10.07;;
11078;SDS011;5592;49.234;7.268;2023-03-01T06:37:02;24.03;;;11.77;;
11078;SDS011;5592;49.234;7.268;2023-03-01T06:39:30;29.57;;;13.17;;
11078;SDS011;5592;49.234;7.268;2023-03-01T06:41:56;24.93;;;11.33;;
11078;SDS011;5592;49.234;7.268;2023-03-01T06:44:22;24.73;;;11.83;;
11078;SDS011;5592;49.234;7.268;2023-03-01T06:46:47;24.47;;;11.90;;
11078;SDS011;5592;49.234;7.268;2023-03-01T06:49:13;22.60;;;13.60;;
11078;SDS011;5592;49.234;7.268;2023-03-01T06:51:41;19.37;;;11.43;;
11078;SDS011;5592;49.234;7.268;2023-03-01T06:54:09;24.50;;;12.40;;
11078;SDS011;5592;49.234;7.268;2023-03-01T06:56:35;18.27;;;11.10;;
11078;SDS011;5592;49.234;7.268;2023-03-01T06:59:02;20.37;;;11.80;;
11078;SDS011;5592;49.234;7.268;2023-03-01T07:01:28;21.70;;;11.33;;
11078;SDS011;5592;49.234;7.268;2023-03-01T07:03:54;19.40;;;11.67;;
11078;SDS011;5592;49.234;7.268;2023-03-01T07:06:20;19.47;;;10.30;;
11078;SDS011;5592;49.234;7.268;2023-03-01T07:08:47;19.53;;;11.40;;
11078;SDS011;5592;49.234;7.268;2023-03-01T07:11:15;17.80;;;10.50;;
11078;SDS011;5592;49.234;7.268;2023-03-01T07:13:41;18.30;;;10.83;;
11078;SDS011;5592;49.234;7.268;2023-03-01T07:16:07;17.80;;;10.97;;
11078;SDS011;5592;49.234;7.268;2023-03-01T07:18:33;18.70;;;10.60;;
11078;SDS011;5592;49.234;7.268;2023-03-01T07:21:03;23.73;;;10.13;;
11078;SDS011;5592;49.234;7.268;2023-03-01T07:23:32;17.17;;;10.60;;
11078;SDS011;5592;49.234;7.268;2023-03-01T07:26:00;16.50;;;10.97;;
11078;SDS011;5592;49.234;7.268;2023-03-01T07:28:25;18.23;;;10.60;;
11078;SDS011;5592;49.234;7.268;2023-03-01T07:30:52;18.20;;;11.00;;
11078;SDS011;5592;49.234;7.268;2023-03-01T07:33:17;18.57;;;10.60;;
11078;SDS011;5592;49.234;7.268;2023-03-01T07:35:43;17.60;;;11.47;;
11078;SDS011;5592;49.234;7.268;2023-03-01T07:38:08;14.97;;;10.57;;
11078;SDS011;5592;49.234;7.268;2023-03-01T07:40:34;18.03;;;12.23;;
11078;SDS011;5592;49.234;7.268;2023-03-01T07:43:00;17.17;;;10.93;;
11078;SDS011;5592;49.234;7.268;2023-03-01T07:45:26;24.73;;;13.00;;
11078;SDS011;5592;49.234;7.268;2023-03-01T07:47:53;21.13;;;12.57;;
11078;SDS011;5592;49.234;7.268;2023-03-01T07:50:19;21.30;;;12.43;;
11078;SDS011;5592;49.234;7.268;2023-03-01T07:52:46;16.00;;;11.67;;
11078;SDS011;5592;49.234;7.268;2023-03-01T07:55:13;19.70;;;12.63;;
11078;SDS011;5592;49.234;7.268;2023-03-01T07:57:39;17.40;;;12.20;;
11078;SDS011;5592;49.234;7.268;2023-03-01T08:00:06;15.83;;;11.40;;
11078;SDS011;5592;49.234;7.268;2023-03-01T08:02:32;17.70;;;10.97;;
11078;SDS011;5592;49.234;7.268;2023-03-01T08:04:58;18.07;;;11.63;;
11078;SDS011;5592;49.234;7.268;2023-03-01T08:07:27;17.57;;;10.80;;
11078;SDS011;5592;49.234;7.268;2023-03-01T08:09:53;15.30;;;10.77;;
11078;SDS011;5592;49.234;7.268;2023-03-01T08:12:20;16.63;;;11.20;;
11078;SDS011;5592;49.234;7.268;2023-03-01T08:14:45;19.87;;;13.33;;
11078;SDS011;5592;49.234;7.268;2023-03-01T08:17:15;15.10;;;11.40;;
11078;SDS011;5592;49.234;7.268;2023-03-01T08:19:42;25.67;;;11.80;;
11078;SDS011;5592;49.234;7.268;2023-03-01T08:22:18;15.90;;;11.40;;
11078;SDS011;5592;49.234;7.268;2023-03-01T08:24:46;16.20;;;12.17;;
11078;SDS011;5592;49.234;7.268;2023-03-01T08:27:15;15.53;;;12.30;;
11078;SDS011;5592;49.234;7.268;2023-03-01T08:29:41;15.40;;;12.13;;
11078;SDS011;5592;49.234;7.268;2023-03-01T08:32:07;15.93;;;10.83;;
11078;SDS011;5592;49.234;7.268;2023-03-01T08:34:33;15.80;;;12.30;;
11078;SDS011;5592;49.234;7.268;2023-03-01T08:37:00;17.53;;;11.73;;
11078;SDS011;5592;49.234;7.268;2023-03-01T08:39:27;18.10;;;12.07;;
11078;SDS011;5592;49.234;7.268;2023-03-01T08:41:52;17.27;;;12.40;;
11078;SDS011;5592;49.234;7.268;2023-03-01T08:44:18;19.67;;;12.77;;
11078;SDS011;5592;49.234;7.268;2023-03-01T08:46:47;16.77;;;12.60;;
11078;SDS011;5592;49.234;7.268;2023-03-01T08:49:16;16.13;;;11.47;;
11078;SDS011;5592;49.234;7.268;2023-03-01T08:51:43;17.77;;;12.13;;
11078;SDS011;5592;49.234;7.268;2023-03-01T08:54:11;16.20;;;12.10;;
11078;SDS011;5592;49.234;7.268;2023-03-01T08:56:37;13.33;;;11.23;;
11078;SDS011;5592;49.234;7.268;2023-03-01T08:59:03;15.80;;;11.80;;
11078;SDS011;5592;49.234;7.268;2023-03-01T09:01:29;15.03;;;11.70;;
11078;SDS011;5592;49.234;7.268;2023-03-01T09:03:55;16.93;;;11.87;;
11078;SDS011;5592;49.234;7.268;2023-03-01T09:06:24;15.63;;;11.67;;
11078;SDS011;5592;49.234;7.268;2023-03-01T09:08:50;15.80;;;13.03;;
11078;SDS011;5592;49.234;7.268;2023-03-01T09:11:20;15.70;;;11.70;;
11078;SDS011;5592;49.234;7.268;2023-03-01T09:13:47;18.63;;;11.90;;
11078;SDS011;5592;49.234;7.268;2023-03-01T09:16:14;16.57;;;12.23;;
11078;SDS011;5592;49.234;7.268;2023-03-01T09:18:42;17.13;;;11.60;;
11078;SDS011;5592;49.234;7.268;2023-03-01T09:21:09;16.60;;;12.03;;
11078;SDS011;5592;49.234;7.268;2023-03-01T09:23:37;14.20;;;11.70;;
11078;SDS011;5592;49.234;7.268;2023-03-01T09:26:15;18.47;;;13.33;;
11078;SDS011;5592;49.234;7.268;2023-03-01T09:28:44;16.47;;;11.40;;
11078;SDS011;5592;49.234;7.268;2023-03-01T09:31:10;22.53;;;12.27;;
11078;SDS011;5592;49.234;7.268;2023-03-01T09:33:37;14.97;;;12.10;;
11078;SDS011;5592;49.234;7.268;2023-03-01T09:36:05;14.10;;;11.30;;
11078;SDS011;5592;49.234;7.268;2023-03-01T09:38:50;16.90;;;12.63;;
11078;SDS011;5592;49.234;7.268;2023-03-01T09:44:37;16.57;;;12.30;;
11078;SDS011;5592;49.234;7.268;2023-03-01T09:47:30;16.60;;;11.77;;
11078;SDS011;5592;49.234;7.268;2023-03-01T09:55:32;18.30;;;11.53;;
11078;SDS011;5592;49.234;7.268;2023-03-01T10:00:49;15.50;;;12.10;;
11078;SDS011;5592;49.234;7.268;2023-03-01T10:03:26;16.77;;;12.40;;
11078;SDS011;5592;49.234;7.268;2023-03-01T10:06:03;16.80;;;13.07;;
11078;SDS011;5592;49.234;7.268;2023-03-01T10:09:35;14.17;;;12.20;;
11078;SDS011;5592;49.234;7.268;2023-03-01T10:11:36;16.10;;;12.00;;
11078;SDS011;5592;49.234;7.268;2023-03-01T10:14:13;19.17;;;13.53;;
11078;SDS011;5592;49.234;7.268;2023-03-01T10:16:48;16.10;;;12.43;;
11078;SDS011;5592;49.234;7.268;2023-03-01T10:19:23;17.40;;;12.57;;
11078;SDS011;5592;49.234;7.268;2023-03-01T10:21:54;19.23;;;12.10;;
11078;SDS011;5592;49.234;7.268;2023-03-01T10:24:27;18.33;;;11.80;;
11078;SDS011;5592;49.234;7.268;2023-03-01T10:27:01;17.50;;;13.20;;
11078;SDS011;5592;49.234;7.268;2023-03-01T10:29:38;14.83;;;12.07;;
11078;SDS011;5592;49.234;7.268;2023-03-01T10:32:11;17.00;;;12.10;;
11078;SDS011;5592;49.234;7.268;2023-03-01T10:34:37;23.63;;;12.80;;
11078;SDS011;5592;49.234;7.268;2023-03-01T10:37:13;16.67;;;12.50;;
11078;SDS011;5592;49.234;7.268;2023-03-01T10:40:03;17.90;;;13.07;;
11078;SDS011;5592;49.234;7.268;2023-03-01T10:42:46;15.97;;;12.10;;
11078;SDS011;5592;49.234;7.268;2023-03-01T10:50:45;15.63;;;11.33;;
11078;SDS011;5592;49.234;7.268;2023-03-01T10:53:54;15.77;;;12.10;;
11078;SDS011;5592;49.234;7.268;2023-03-01T10:56:13;18.30;;;13.23;;
11078;SDS011;5592;49.234;7.268;2023-03-01T10:58:41;16.43;;;13.10;;
11078;SDS011;5592;49.234;7.268;2023-03-01T11:01:34;23.30;;;13.70;;
11078;SDS011;5592;49.234;7.268;2023-03-01T11:06:36;18.43;;;13.10;;
11078;SDS011;5592;49.234;7.268;2023-03-01T11:11:57;19.20;;;12.87;;
11078;SDS011;5592;49.234;7.268;2023-03-01T11:14:30;18.17;;;12.80;;
11078;SDS011;5592;49.234;7.268;2023-03-01T11:17:30;19.03;;;13.23;;
11078;SDS011;5592;49.234;7.268;2023-03-01T11:20:15;16.77;;;11.90;;
11078;SDS011;5592;49.234;7.268;2023-03-01T11:22:50;20.37;;;12.43;;
11078;SDS011;5592;49.234;7.268;2023-03-01T11:25:25;18.57;;;13.67;;
11078;SDS011;5592;49.234;7.268;2023-03-01T11:27:54;16.13;;;11.90;;
11078;SDS011;5592;49.234;7.268;2023-03-01T11:35:53;18.73;;;12.93;;
11078;SDS011;5592;49.234;7.268;2023-03-01T11:38:26;17.97;;;12.70;;
11078;SDS011;5592;49.234;7.268;2023-03-01T11:44:00;18.90;;;12.73;;
11078;SDS011;5592;49.234;7.268;2023-03-01T11:57:35;17.30;;;12.20;;
11078;SDS011;5592;49.234;7.268;2023-03-01T12:00:10;16.67;;;12.30;;
11078;SDS011;5592;49.234;7.268;2023-03-01T12:08:31;20.80;;;12.43;;
11078;SDS011;5592;49.234;7.268;2023-03-01T12:11:11;20.00;;;12.40;;
11078;SDS011;5592;49.234;7.268;2023-03-01T12:19:32;21.20;;;13.03;;
11078;SDS011;5592;49.234;7.268;2023-03-01T12:39:40;20.83;;;12.80;;
11078;SDS011;5592;49.234;7.268;2023-03-01T12:41:57;20.80;;;13.17;;
11078;SDS011;5592;49.234;7.268;2023-03-01T12:50:41;18.50;;;11.90;;
11078;SDS011;5592;49.234;7.268;2023-03-01T12:56:00;18.20;;;11.30;;
11078;SDS011;5592;49.234;7.268;2023-03-01T13:07:39;18.20;;;10.83;;
11078;SDS011;5592;49.234;7.268;2023-03-01T13:13:00;22.37;;;14.10;;
11078;SDS011;5592;49.234;7.268;2023-03-01T13:15:47;20.63;;;12.93;;
11078;SDS011;5592;49.234;7.268;2023-03-01T13:33:55;15.70;;;11.07;;
11078;SDS011;5592;49.234;7.268;2023-03-01T13:47:36;19.20;;;11.77;;
11078;SDS011;5592;49.234;7.268;2023-03-01T13:49:59;22.00;;;13.27;;
11078;SDS011;5592;49.234;7.268;2023-03-01T13:57:36;18.83;;;12.23;;
11078;SDS011;5592;49.234;7.268;2023-03-01T14:00:04;20.43;;;12.30;;
11078;SDS011;5592;49.234;7.268;2023-03-01T14:02:31;18.73;;;11.53;;
11078;SDS011;5592;49.234;7.268;2023-03-01T14:05:00;21.80;;;11.80;;
11078;SDS011;5592;49.234;7.268;2023-03-01T14:07:31;19.00;;;11.97;;
11078;SDS011;5592;49.234;7.268;2023-03-01T14:09:58;17.00;;;11.67;;
11078;SDS011;5592;49.234;7.268;2023-03-01T14:15:02;22.63;;;11.70;;
11078;SDS011;5592;49.234;7.268;2023-03-01T14:20:17;17.70;;;11.13;;
11078;SDS011;5592;49.234;7.268;2023-03-01T14:22:49;19.67;;;11.50;;
11078;SDS011;5592;49.234;7.268;2023-03-01T14:25:32;19.33;;;11.47;;
11078;SDS011;5592;49.234;7.268;2023-03-01T14:28:04;19.67;;;12.97;;
11078;SDS011;5592;49.234;7.268;2023-03-01T14:30:34;22.00;;;13.93;;
11078;SDS011;5592;49.234;7.268;2023-03-01T14:33:04;21.90;;;13.60;;
11078;SDS011;5592;49.234;7.268;2023-03-01T14:35:42;22.30;;;12.53;;
11078;SDS011;5592;49.234;7.268;2023-03-01T14:38:20;22.53;;;12.20;;
11078;SDS011;5592;49.234;7.268;2023-03-01T14:41:01;19.80;;;12.10;;
11078;SDS011;5592;49.234;7.268;2023-03-01T14:43:32;19.30;;;12.80;;
11078;SDS011;5592;49.234;7.268;2023-03-01T14:46:00;18.03;;;11.07;;
11078;SDS011;5592;49.234;7.268;2023-03-01T14:48:27;19.40;;;10.90;;
11078;SDS011;5592;49.234;7.268;2023-03-01T14:50:54;20.07;;;12.43;;
11078;SDS011;5592;49.234;7.268;2023-03-01T14:53:21;28.87;;;13.33;;
11078;SDS011;5592;49.234;7.268;2023-03-01T14:55:54;18.33;;;12.13;;
11078;SDS011;5592;49.234;7.268;2023-03-01T14:58:22;17.63;;;12.30;;
11078;SDS011;5592;49.234;7.268;2023-03-01T15:00:51;22.57;;;12.50;;
11078;SDS011;5592;49.234;7.268;2023-03-01T15:03:35;16.37;;;11.93;;
11078;SDS011;5592;49.234;7.268;2023-03-01T15:06:02;20.10;;;12.07;;
11078;SDS011;5592;49.234;7.268;2023-03-01T15:08:32;20.93;;;12.10;;
11078;SDS011;5592;49.234;7.268;2023-03-01T15:11:02;18.10;;;11.13;;
11078;SDS011;5592;49.234;7.268;2023-03-01T15:13:31;19.93;;;11.80;;
11078;SDS011;5592;49.234;7.268;2023-03-01T15:18:33;17.90;;;11.83;;
11078;SDS011;5592;49.234;7.268;2023-03-01T15:21:08;17.20;;;10.97;;
11078;SDS011;5592;49.234;7.268;2023-03-01T15:23:40;22.20;;;11.37;;
11078;SDS011;5592;49.234;7.268;2023-03-01T15:26:26;19.27;;;11.70;;
11078;SDS011;5592;49.234;7.268;2023-03-01T15:28:55;16.87;;;11.23;;
11078;SDS011;5592;49.234;7.268;2023-03-01T15:31:33;20.43;;;12.70;;
11078;SDS011;5592;49.234;7.268;2023-03-01T15:34:11;18.00;;;11.30;;
11078;SDS011;5592;49.234;7.268;2023-03-01T15:36:51;19.30;;;11.80;;
11078;SDS011;5592;49.234;7.268;2023-03-01T15:39:32;18.00;;;11.40;;
11078;SDS011;5592;49.234;7.268;2023-03-01T15:42:09;19.47;;;11.63;;
11078;SDS011;5592;49.234;7.268;2023-03-01T15:48:02;17.67;;;11.60;;
11078;SDS011;5592;49.234;7.268;2023-03-01T15:50:31;17.93;;;11.30;;
11078;SDS011;5592;49.234;7.268;2023-03-01T15:52:59;23.93;;;11.00;;
11078;SDS011;5592;49.234;7.268;2023-03-01T15:55:27;13.93;;;9.80;;
11078;SDS011;5592;49.234;7.268;2023-03-01T15:58:02;18.67;;;10.20;;
11078;SDS011;5592;49.234;7.268;2023-03-01T16:00:41;13.40;;;9.50;;
11078;SDS011;5592;49.234;7.268;2023-03-01T16:03:07;14.10;;;9.67;;
11078;SDS011;5592;49.234;7.268;2023-03-01T16:05:36;17.00;;;9.60;;
11078;SDS011;5592;49.234;7.268;2023-03-01T16:08:03;16.60;;;10.17;;
11078;SDS011;5592;49.234;7.268;2023-03-01T16:10:30;16.80;;;9.73;;
11078;SDS011;5592;49.234;7.268;2023-03-01T16:12:57;16.60;;;9.73;;
11078;SDS011;5592;49.234;7.268;2023-03-01T16:15:24;17.23;;;10.10;;
11078;SDS011;5592;49.234;7.268;2023-03-01T16:17:54;12.67;;;8.80;;
11078;SDS011;5592;49.234;7.268;2023-03-01T16:20:20;13.73;;;9.03;;
11078;SDS011;5592;49.234;7.268;2023-03-01T16:22:47;17.07;;;9.60;;
11078;SDS011;5592;49.234;7.268;2023-03-01T16:25:13;14.43;;;9.17;;
11078;SDS011;5592;49.234;7.268;2023-03-01T16:27:44;13.53;;;9.07;;
11078;SDS011;5592;49.234;7.268;2023-03-01T16:30:16;18.53;;;9.13;;
11078;SDS011;5592;49.234;7.268;2023-03-01T16:32:44;14.30;;;8.83;;
11078;SDS011;5592;49.234;7.268;2023-03-01T16:35:11;12.37;;;8.27;;
11078;SDS011;5592;49.234;7.268;2023-03-01T16:37:38;13.53;;;8.70;;
11078;SDS011;5592;49.234;7.268;2023-03-01T16:40:05;12.70;;;8.17;;
11078;SDS011;5592;49.234;7.268;2023-03-01T16:42:36;14.67;;;8.60;;
11078;SDS011;5592;49.234;7.268;2023-03-01T16:45:02;18.97;;;8.33;;
11078;SDS011;5592;49.234;7.268;2023-03-01T16:47:28;19.73;;;9.00;;
11078;SDS011;5592;49.234;7.268;2023-03-01T16:49:54;15.27;;;7.93;;
11078;SDS011;5592;49.234;7.268;2023-03-01T16:52:21;12.00;;;7.47;;
11078;SDS011;5592;49.234;7.268;2023-03-01T16:54:47;16.57;;;8.33;;
11078;SDS011;5592;49.234;7.268;2023-03-01T16:57:12;18.17;;;8.60;;
11078;SDS011;5592;49.234;7.268;2023-03-01T16:59:38;15.43;;;8.90;;
11078;SDS011;5592;49.234;7.268;2023-03-01T17:02:05;15.00;;;7.73;;
11078;SDS011;5592;49.234;7.268;2023-03-01T17:04:34;13.07;;;8.37;;
11078;SDS011;5592;49.234;7.268;2023-03-01T17:07:00;13.17;;;7.63;;
11078;SDS011;5592;49.234;7.268;2023-03-01T17:09:25;12.67;;;8.20;;
11078;SDS011;5592;49.234;7.268;2023-03-01T17:11:51;17.10;;;7.67;;
11078;SDS011;5592;49.234;7.268;2023-03-01T17:14:16;14.47;;;7.13;;
11078;SDS011;5592;49.234;7.268;2023-03-01T17:16:42;13.70;;;7.73;;
11078;SDS011;5592;49.234;7.268;2023-03-01T17:19:09;14.30;;;7.80;;